Lincoln, DE

4:56 AM EDT on September 05, 2015 (GMT -0400)
APRSWXNET | | Change Station
CLOSE
Current Station
Personal Weather Station
Location: Ellendale, DE
Elevation: 36 ft
Nearby Weather Stations

Elev 36 ft 38.83 °N, 75.32 °W | Updated 18 minutes ago

Overcast
Overcast
74 °F
Feels Like 73 °F
N
2
Wind Variable Wind from East
Gusts 8.0 mph

Today
High -- | Low -- °F
--% Chance of Precip.
Yesterday
High -- | Low -- °F
Precip. -- in
6:34 AM 7:26 PM
Waning Gibbous, 50% visible
Pressure 30.17 in
Visibility 10.0 miles
Clouds Overcast 2400 ft
Heat Index 73 °F
Dew Point 70 °F
Humidity 86%
Rainfall in
Snow Depth Not available.
UV 0 out of 12
Pollen 9.40 out of 12
Air Quality Not available.
Flu Activity Not available.
METAR KGED 050854Z AUTO 06010KT 10SM OVC024 23/20 A3017 RMK AO2 SLP214 T02280200 53008
Pressure 30.17 in
Visibility 10.0 miles
Clouds Overcast 2400 ft
Heat Index 73 °F
Dew Point 70 °F
Humidity 86%
Rainfall in
Snow Depth Not available.
UV 0 out of 12
Pollen 9.40 out of 12
Air Quality Not available.
Flu Activity Not available.
METAR KGED 050854Z AUTO 06010KT 10SM OVC024 23/20 A3017 RMK AO2 SLP214 T02280200 53008

10-Day Weather Forecast

×

Almanac

Astronomy

Sep. 05, 2015 Rise Set
Actual Time
Civil Twilight
Nautical Twilight
Astronomical Twilight
Moon
Length of Visible Light
Length of Day
Tomorrow will be .
, % of the Moon is Illuminated

Today's Extremes

State Highs State Lows

Community

WunderPhotos

Upload Photos

1,852,440 photos uploaded!

WunderBlogs® & News

Nearby

Air Quality

  Air Quality AQ Index Pollutant
Not available.

Snow Depth

Station Depth Elevation

Earthquake Activity

City Distance Mag. Time & Date
Minimum magnitude displayed is 2.5.

Coastal Water Temperatures

Place Temperature

Stations

Nearby Weather Stations

Station Location Temp. Windchill Dew Point Humidity Wind Precip. Elev Updated Type